createdAt,value
2017-11-01T00:01:02.194Z,0
2017-11-01T00:02:12.266Z,0
2017-11-01T00:03:22.665Z,0
2017-11-01T00:04:33.118Z,0
2017-11-01T00:05:43.267Z,0
2017-11-01T00:06:53.345Z,0
2017-11-01T00:08:03.430Z,0
2017-11-01T00:09:13.830Z,0
2017-11-01T00:10:24.241Z,0
2017-11-01T00:11:34.650Z,0
2017-11-01T00:12:45.046Z,0
2017-11-01T00:14:08.181Z,0
2017-11-01T00:15:18.593Z,0
2017-11-01T00:16:28.990Z,0
2017-11-01T00:17:39.065Z,0
2017-11-01T00:18:49.140Z,0
2017-11-01T00:19:59.216Z,0
2017-11-01T00:21:09.623Z,0
2017-11-01T00:22:20.015Z,0
2017-11-01T00:23:30.086Z,0
2017-11-01T00:24:40.171Z,0
2017-11-01T00:25:50.226Z,0
2017-11-01T00:27:00.629Z,0
2017-11-01T00:28:11.095Z,0
2017-11-01T00:29:21.511Z,0
2017-11-01T00:30:31.597Z,0
2017-11-01T00:31:42.057Z,0
2017-11-01T00:32:51.790Z,0
2017-11-01T00:34:02.187Z,0
2017-11-01T00:35:12.601Z,0
2017-11-01T00:36:22.698Z,0
2017-11-01T00:37:33.088Z,0
2017-11-01T00:38:43.490Z,0
2017-11-01T00:39:53.880Z,0
2017-11-01T00:41:04.281Z,0
2017-11-01T00:42:14.378Z,0
2017-11-01T00:43:24.771Z,0
2017-11-01T00:44:34.844Z,0
2017-11-01T00:45:45.297Z,0
2017-11-01T00:46:55.727Z,0
2017-11-01T00:48:06.101Z,0
2017-11-01T00:49:16.514Z,0
2017-11-01T00:50:26.911Z,0
2017-11-01T00:51:37.077Z,0
2017-11-01T00:52:47.474Z,0
2017-11-01T00:53:57.867Z,0
2017-11-01T00:55:08.269Z,0
2017-11-01T00:56:18.690Z,0
2017-11-01T00:57:29.103Z,0
2017-11-01T00:58:39.563Z,0
2017-11-01T00:59:49.930Z,0
2017-11-01T01:00:59.662Z,0
2017-11-01T01:02:10.068Z,0
2017-11-01T01:03:20.519Z,0
2017-11-01T01:04:30.930Z,0
2017-11-01T01:05:41.341Z,0
2017-11-01T01:06:51.751Z,0
2017-11-01T01:08:01.830Z,0
2017-11-01T01:09:11.886Z,0
2017-11-01T01:10:21.961Z,0
2017-11-01T01:11:32.396Z,0
2017-11-01T01:12:42.484Z,0
2017-11-01T01:13:52.861Z,0
2017-11-01T01:15:03.270Z,0
2017-11-01T01:16:13.670Z,0
2017-11-01T01:17:24.062Z,0
2017-11-01T01:18:34.448Z,0
2017-11-01T01:19:44.562Z,0
2017-11-01T01:20:55.008Z,0
2017-11-01T01:22:05.064Z,0
2017-11-01T01:23:15.472Z,0
2017-11-01T01:24:25.527Z,0
2017-11-01T01:25:35.601Z,0
2017-11-01T01:26:45.723Z,0
2017-11-01T01:27:56.596Z,0
2017-11-01T01:29:06.997Z,0
2017-11-01T01:30:17.800Z,0
2017-11-01T01:31:28.400Z,0
2017-11-01T01:32:38.840Z,0
2017-11-01T01:33:49.222Z,0
2017-11-01T01:34:59.293Z,0
2017-11-01T01:36:09.042Z,0
2017-11-01T01:37:19.137Z,0
2017-11-01T01:38:29.599Z,0
2017-11-01T01:39:39.899Z,0
2017-11-01T01:40:50.301Z,0
2017-11-01T01:42:00.708Z,0
2017-11-01T01:43:11.107Z,0
2017-11-01T01:44:21.183Z,0
2017-11-01T01:45:31.570Z,0
2017-11-01T01:46:41.316Z,0
2017-11-01T01:47:51.894Z,0
2017-11-01T01:49:01.964Z,0
2017-11-01T01:50:12.426Z,0
2017-11-01T01:51:22.489Z,0
2017-11-01T01:52:32.578Z,0
2017-11-01T01:53:42.979Z,0
2017-11-01T01:54:53.377Z,0
2017-11-01T01:56:03.789Z,0
2017-11-01T01:57:14.200Z,0
2017-11-01T01:58:24.592Z,0
2017-11-01T01:59:34.666Z,0
2017-11-01T02:00:45.077Z,0
2017-11-01T02:01:55.476Z,0
2017-11-01T02:03:05.873Z,0
2017-11-01T02:04:16.272Z,0
2017-11-01T02:05:26.679Z,0
2017-11-01T02:06:37.071Z,0
2017-11-01T02:07:47.137Z,0
2017-11-01T02:08:57.194Z,0
2017-11-01T02:10:07.587Z,0
2017-11-01T02:11:17.994Z,0
2017-11-01T02:12:28.395Z,0
2017-11-01T02:13:38.531Z,0
2017-11-01T02:14:48.919Z,0
2017-11-01T02:15:59.315Z,0
2017-11-01T02:17:10.529Z,0
2017-11-01T02:18:21.343Z,0
2017-11-01T02:19:34.895Z,0
2017-11-01T02:20:45.353Z,0
2017-11-01T02:21:57.282Z,0
2017-11-01T02:23:08.859Z,0
2017-11-01T02:24:20.150Z,0
2017-11-01T02:25:32.148Z,0
2017-11-01T02:26:43.665Z,0
2017-11-01T02:27:54.224Z,0
2017-11-01T02:29:04.921Z,0
2017-11-01T02:30:15.201Z,0
2017-11-01T02:31:25.603Z,0
2017-11-01T02:32:36.019Z,0
2017-11-01T02:33:46.441Z,0
2017-11-01T02:34:56.167Z,0
2017-11-01T02:36:06.609Z,0
2017-11-01T02:37:17.014Z,0
2017-11-01T02:38:27.414Z,0
2017-11-01T02:39:37.813Z,0
2017-11-01T02:40:48.213Z,0
2017-11-01T02:41:58.631Z,0
2017-11-01T02:43:09.090Z,0
2017-11-01T02:44:19.497Z,0
2017-11-01T02:45:29.567Z,0
2017-11-01T02:46:39.975Z,0
2017-11-01T02:47:50.383Z,0
2017-11-01T02:49:00.818Z,0
2017-11-01T02:50:11.217Z,0
2017-11-01T02:51:20.631Z,0
2017-11-01T02:52:30.709Z,0
2017-11-01T02:53:41.190Z,0
2017-11-01T02:54:51.582Z,0
2017-11-01T02:56:01.674Z,0
2017-11-01T02:57:12.074Z,0
2017-11-01T02:58:22.481Z,0
2017-11-01T02:59:32.874Z,0
2017-11-01T03:00:44.071Z,0
2017-11-01T03:01:54.493Z,0
2017-11-01T03:33:20.496Z,0
2017-11-01T03:34:30.885Z,0
2017-11-01T03:35:41.264Z,0
2017-11-01T03:36:51.351Z,0
2017-11-01T03:38:01.749Z,0
2017-11-01T03:39:11.482Z,0
2017-11-01T03:40:21.569Z,0
2017-11-01T03:41:31.656Z,0
2017-11-01T03:42:42.355Z,0
2017-11-01T03:43:52.747Z,0
2017-11-01T03:45:03.153Z,0
2017-11-01T03:46:13.226Z,0
2017-11-01T03:47:23.656Z,0
2017-11-01T03:48:34.059Z,0
2017-11-01T03:49:44.464Z,0
2017-11-01T03:50:54.912Z,0
2017-11-01T03:52:04.985Z,0
2017-11-01T03:53:15.026Z,0
2017-11-01T03:54:24.747Z,0
2017-11-01T03:55:35.156Z,0
2017-11-01T03:56:45.232Z,0
2017-11-01T03:57:55.299Z,0
2017-11-01T03:59:05.380Z,0
2017-11-01T04:00:15.439Z,0
2017-11-01T04:01:25.846Z,0
2017-11-01T04:02:35.950Z,0
2017-11-01T04:03:46.347Z,0
2017-11-01T04:04:56.733Z,0
2017-11-01T04:06:07.116Z,0
2017-11-01T04:07:17.197Z,0
2017-11-01T04:08:27.650Z,0
2017-11-01T04:09:37.741Z,0
2017-11-01T04:10:48.138Z,0
2017-11-01T04:11:58.539Z,0
2017-11-01T04:13:08.940Z,0
2017-11-01T04:14:19.395Z,0
2017-11-01T04:15:29.803Z,0
2017-11-01T04:16:40.191Z,0
2017-11-01T04:17:50.246Z,0
2017-11-01T04:19:00.632Z,0
2017-11-01T04:20:11.080Z,0
2017-11-01T04:21:21.466Z,0
2017-11-01T04:22:31.863Z,0
2017-11-01T04:23:41.946Z,0
2017-11-01T04:24:52.345Z,0
2017-11-01T04:26:02.411Z,0
2017-11-01T04:27:12.483Z,0
2017-11-01T04:28:22.873Z,0
2017-11-01T04:29:33.270Z,0
2017-11-01T04:30:43.669Z,0
2017-11-01T04:31:53.750Z,0
2017-11-01T04:33:04.160Z,0
2017-11-01T04:34:14.228Z,0
2017-11-01T04:35:24.637Z,0
2017-11-01T04:36:35.064Z,0
2017-11-01T04:37:45.452Z,0
2017-11-01T04:38:55.516Z,0
2017-11-01T04:40:05.583Z,0
2017-11-01T04:41:15.983Z,0
2017-11-01T04:42:26.385Z,0
2017-11-01T04:43:36.822Z,0
2017-11-01T04:44:47.218Z,0
2017-11-01T04:45:57.296Z,0
2017-11-01T04:47:07.681Z,0
2017-11-01T04:48:18.080Z,0
2017-11-01T04:49:28.199Z,0
2017-11-01T04:50:38.259Z,0
2017-11-01T04:51:48.334Z,0
2017-11-01T04:52:58.415Z,0
2017-11-01T04:54:08.483Z,0
2017-11-01T04:55:18.859Z,0
2017-11-01T04:56:28.916Z,0
2017-11-01T04:57:38.999Z,0
2017-11-01T04:58:49.615Z,0
2017-11-01T05:00:00.015Z,0
2017-11-01T05:01:10.474Z,0
2017-11-01T05:02:20.879Z,0
2017-11-01T05:03:31.265Z,0
2017-11-01T05:04:41.673Z,0
2017-11-01T05:05:51.723Z,0
2017-11-01T05:07:02.166Z,0
2017-11-01T05:08:11.897Z,0
2017-11-01T05:09:22.321Z,0
2017-11-01T05:10:32.703Z,0
2017-11-01T05:11:43.135Z,0
2017-11-01T05:12:53.249Z,0
2017-11-01T05:14:03.662Z,0
2017-11-01T05:15:14.054Z,0
2017-11-01T05:16:24.446Z,0
2017-11-01T05:17:34.843Z,0
2017-11-01T05:18:44.897Z,0
2017-11-01T05:19:55.284Z,0
2017-11-01T05:21:05.538Z,0
2017-11-01T05:22:15.935Z,0
2017-11-01T05:23:26.330Z,0
2017-11-01T05:24:36.772Z,0
2017-11-01T05:25:47.185Z,0
2017-11-01T05:26:57.591Z,0
2017-11-01T05:28:07.993Z,0
2017-11-01T05:29:18.060Z,0
2017-11-01T05:30:28.199Z,0
2017-11-01T05:31:38.594Z,0
2017-11-01T05:32:48.660Z,0
2017-11-01T05:33:58.722Z,0
2017-11-01T05:35:09.131Z,0
2017-11-01T05:36:18.913Z,0
2017-11-01T05:37:29.302Z,5
2017-11-01T05:38:39.034Z,5
2017-11-01T05:39:49.096Z,5
2017-11-01T05:40:59.495Z,5
2017-11-01T05:42:09.921Z,5
2017-11-01T05:43:20.317Z,5
2017-11-01T05:44:30.368Z,5
2017-11-01T05:45:40.433Z,10
2017-11-01T05:46:50.814Z,10
2017-11-01T05:48:01.249Z,10
2017-11-01T05:49:11.647Z,10
2017-11-01T05:50:21.706Z,10
2017-11-01T05:51:31.775Z,15
2017-11-01T05:52:42.169Z,15
2017-11-01T05:53:52.612Z,15
2017-11-01T05:55:03.040Z,15
2017-11-01T05:56:13.115Z,15
2017-11-01T05:57:23.177Z,20
2017-11-01T05:58:33.589Z,20
2017-11-01T05:59:44.035Z,20
2017-11-01T06:00:54.423Z,20
2017-11-01T06:02:04.489Z,25
2017-11-01T06:03:14.887Z,25
2017-11-01T06:04:25.282Z,25
2017-11-01T06:05:35.673Z,25
2017-11-01T06:06:46.075Z,30
2017-11-01T06:07:56.469Z,30
2017-11-01T06:09:06.885Z,30
2017-11-01T06:10:16.962Z,30
2017-11-01T06:11:27.462Z,35
2017-11-01T06:12:37.201Z,35
2017-11-01T06:13:47.619Z,35
2017-11-01T06:14:58.017Z,40
2017-11-01T06:16:07.736Z,40
2017-11-01T06:17:18.137Z,45
2017-11-01T06:18:28.542Z,40
2017-11-01T06:19:38.936Z,45
2017-11-01T06:20:49.326Z,45
2017-11-01T06:21:59.730Z,50
2017-11-01T06:23:09.881Z,50
2017-11-01T06:24:20.288Z,50
2017-11-01T06:25:30.680Z,50
2017-11-01T06:26:41.087Z,55
2017-11-01T06:27:51.149Z,55
2017-11-01T06:29:01.541Z,55
2017-11-01T06:30:11.968Z,60
2017-11-01T06:31:22.361Z,60
2017-11-01T06:32:32.410Z,60
2017-11-01T06:33:42.486Z,60
2017-11-01T06:34:52.886Z,60
2017-11-01T06:36:03.277Z,65
2017-11-01T06:37:13.351Z,70
2017-11-01T06:38:23.756Z,75
2017-11-01T06:39:33.496Z,80
2017-11-01T06:40:43.629Z,80
2017-11-01T06:41:54.029Z,80
2017-11-01T06:43:04.106Z,80
2017-11-01T06:44:14.510Z,80
2017-11-01T06:45:24.935Z,80
2017-11-01T06:46:35.406Z,80
2017-11-01T06:47:45.165Z,80
2017-11-01T06:48:55.225Z,80
2017-11-01T06:50:05.627Z,85
2017-11-01T06:51:16.021Z,85
2017-11-01T06:52:26.137Z,85
2017-11-01T06:53:36.536Z,85
2017-11-01T06:54:46.594Z,85
2017-11-01T06:55:56.983Z,90
2017-11-01T06:57:07.384Z,95
2017-11-01T06:58:17.804Z,95
2017-11-01T06:59:27.876Z,90
2017-11-01T07:00:37.938Z,85
2017-11-01T07:01:48.020Z,80
2017-11-01T07:02:58.087Z,90
2017-11-01T07:04:08.200Z,90
2017-11-01T07:05:18.618Z,90
2017-11-01T07:06:29.039Z,100
2017-11-01T07:07:39.428Z,85
2017-11-01T07:08:49.835Z,90
2017-11-01T07:10:00.229Z,90
2017-11-01T07:11:10.633Z,90
2017-11-01T07:12:20.757Z,85
2017-11-01T07:13:31.152Z,85
2017-11-01T07:14:41.549Z,85
2017-11-01T07:15:51.990Z,90
2017-11-01T07:17:02.405Z,90
2017-11-01T07:18:12.798Z,90
2017-11-01T07:19:23.221Z,85
2017-11-01T07:20:32.964Z,80
2017-11-01T07:21:43.080Z,80
2017-11-01T07:22:53.472Z,80
2017-11-01T07:24:03.873Z,80
2017-11-01T07:25:14.263Z,80
2017-11-01T07:26:24.668Z,80
2017-11-01T07:27:35.118Z,80
2017-11-01T07:28:45.515Z,75
2017-11-01T07:29:55.572Z,80
2017-11-01T07:31:05.322Z,80
2017-11-01T07:32:15.721Z,80
2017-11-01T07:33:25.821Z,80
2017-11-01T07:34:35.923Z,80
2017-11-01T07:35:46.350Z,80
2017-11-01T07:36:56.432Z,80
2017-11-01T07:38:06.494Z,80
2017-11-01T07:39:16.889Z,80
2017-11-01T07:40:26.958Z,80
2017-11-01T07:41:37.358Z,85
2017-11-01T07:42:47.430Z,85
2017-11-01T07:43:57.854Z,85
2017-11-01T07:45:08.275Z,85
2017-11-01T07:46:18.333Z,85
2017-11-01T07:47:28.800Z,85
2017-11-01T07:48:38.880Z,85
2017-11-01T07:49:48.945Z,85
2017-11-01T07:50:59.428Z,85
2017-11-01T07:52:09.831Z,85
2017-11-01T07:53:20.225Z,85
2017-11-01T07:54:30.726Z,85
2017-11-01T07:55:40.514Z,80
2017-11-01T07:56:50.663Z,85
2017-11-01T07:58:01.068Z,85
2017-11-01T07:59:11.165Z,85
2017-11-01T08:00:21.716Z,85
2017-11-01T08:01:31.789Z,85
2017-11-01T08:02:41.601Z,90
2017-11-01T08:03:51.995Z,85
2017-11-01T08:05:02.067Z,85
2017-11-01T08:06:12.163Z,90
2017-11-01T08:07:22.278Z,90
2017-11-01T08:08:32.721Z,90
2017-11-01T08:09:42.787Z,95
2017-11-01T08:10:53.132Z,100
2017-11-01T08:12:02.875Z,100
2017-11-01T08:13:13.291Z,105
2017-11-01T08:14:23.693Z,105
2017-11-01T08:15:34.085Z,100
2017-11-01T08:16:44.497Z,100
2017-11-01T08:17:54.895Z,100
2017-11-01T08:19:05.537Z,105
2017-11-01T08:20:15.682Z,105
2017-11-01T08:21:25.755Z,105
2017-11-01T08:22:36.179Z,110
2017-11-01T08:23:46.252Z,110
2017-11-01T08:24:56.646Z,110
2017-11-01T08:26:06.385Z,115
2017-11-01T08:27:16.787Z,115
2017-11-01T08:28:26.887Z,120
2017-11-01T08:29:37.296Z,120
2017-11-01T08:30:47.713Z,120
2017-11-01T08:31:57.842Z,125
2017-11-01T08:33:08.246Z,125
2017-11-01T08:34:18.659Z,125
2017-11-01T08:35:28.745Z,130
2017-11-01T08:36:38.817Z,125
2017-11-01T08:37:48.949Z,125
2017-11-01T08:38:59.343Z,125
2017-11-01T08:40:09.762Z,125
2017-11-01T08:41:20.211Z,125
2017-11-01T08:42:30.640Z,120
2017-11-01T08:43:40.428Z,120
2017-11-01T08:44:50.847Z,125
2017-11-01T08:46:01.249Z,125
2017-11-01T08:47:11.643Z,130
2017-11-01T08:48:21.710Z,130
2017-11-01T08:49:32.162Z,135
2017-11-01T08:50:42.580Z,135
2017-11-01T08:51:52.660Z,140
2017-11-01T08:53:03.057Z,140
2017-11-01T08:54:13.451Z,140
2017-11-01T08:55:23.874Z,140
2017-11-01T08:56:34.291Z,140
2017-11-01T08:57:44.390Z,145
2017-11-01T08:58:54.789Z,145
2017-11-01T09:00:05.197Z,145
2017-11-01T09:01:15.610Z,145
2017-11-01T09:02:25.691Z,145
2017-11-01T09:03:36.097Z,145
2017-11-01T09:04:46.182Z,145
2017-11-01T09:05:56.602Z,140
2017-11-01T09:07:07.024Z,135
2017-11-01T09:08:17.444Z,130
2017-11-01T09:09:26.861Z,130
2017-11-01T09:10:37.267Z,130
2017-11-01T09:11:47.691Z,125
2017-11-01T09:12:58.112Z,125
2017-11-01T09:14:08.188Z,130
2017-11-01T09:15:18.250Z,135
2017-11-01T09:16:28.648Z,135
2017-11-01T09:17:38.740Z,135
2017-11-01T09:18:49.195Z,140
2017-11-01T09:19:59.613Z,140
2017-11-01T09:21:10.009Z,135
2017-11-01T09:22:20.436Z,145
2017-11-01T09:23:30.178Z,140
2017-11-01T09:24:40.597Z,145
2017-11-01T09:25:50.660Z,145
2017-11-01T09:27:00.743Z,145
2017-11-01T09:28:11.154Z,140
2017-11-01T09:29:21.551Z,150
2017-11-01T09:30:31.686Z,150
2017-11-01T09:31:42.098Z,160
2017-11-01T09:32:52.498Z,165
2017-11-01T09:34:02.896Z,200
2017-11-01T09:35:13.298Z,225
2017-11-01T09:36:23.753Z,205
2017-11-01T09:37:34.170Z,225
2017-11-01T09:38:44.575Z,160
2017-11-01T09:39:55.057Z,140
2017-11-01T09:41:05.707Z,170
2017-11-01T09:42:16.148Z,135
2017-11-01T09:43:26.562Z,135
2017-11-01T09:44:36.660Z,140
2017-11-01T09:45:46.730Z,135
2017-11-01T09:46:57.144Z,145
2017-11-01T09:48:07.541Z,175
2017-11-01T09:49:17.938Z,220
2017-11-01T09:50:28.371Z,215
2017-11-01T09:51:38.785Z,160
2017-11-01T09:52:48.871Z,145
2017-11-01T09:53:59.364Z,155
2017-11-01T09:55:09.777Z,145
2017-11-01T09:56:20.227Z,185
2017-11-01T09:57:30.323Z,160
2017-11-01T09:58:40.764Z,185
2017-11-01T09:59:50.856Z,205
2017-11-01T10:01:00.927Z,165
2017-11-01T10:02:11.355Z,235
2017-11-01T10:03:21.099Z,210
2017-11-01T10:04:30.863Z,195
2017-11-01T10:05:40.988Z,180
2017-11-01T10:06:51.089Z,190
2017-11-01T10:08:01.509Z,155
2017-11-01T10:09:11.933Z,150
2017-11-01T10:10:22.342Z,155
2017-11-01T10:11:32.733Z,190
2017-11-01T10:12:43.145Z,160
2017-11-01T10:13:53.594Z,170
2017-11-01T10:15:03.675Z,140
2017-11-01T10:16:14.086Z,215
2017-11-01T10:17:24.552Z,175
2017-11-01T10:18:34.642Z,185
2017-11-01T10:19:44.757Z,205
2017-11-01T10:20:55.196Z,205
2017-11-01T10:22:05.277Z,215
2017-11-01T10:23:15.413Z,220
2017-11-01T10:24:25.831Z,215
2017-11-01T10:25:35.889Z,155
2017-11-01T10:26:46.294Z,160
2017-11-01T10:27:56.708Z,160
2017-11-01T10:29:07.172Z,135
2017-11-01T10:30:17.573Z,130
2017-11-01T10:31:27.642Z,205
2017-11-01T10:32:38.062Z,225
2017-11-01T10:33:48.170Z,230
2017-11-01T10:34:58.246Z,190
2017-11-01T10:36:08.696Z,150
2017-11-01T10:37:18.783Z,195
2017-11-01T10:38:29.221Z,215
2017-11-01T10:39:39.672Z,225
2017-11-01T10:40:50.136Z,215
2017-11-01T10:42:00.546Z,165
2017-11-01T10:43:10.955Z,170
2017-11-01T10:44:21.370Z,275
2017-11-01T10:45:31.786Z,280
2017-11-01T10:46:41.521Z,230
2017-11-01T10:47:51.956Z,225
2017-11-01T10:49:02.366Z,190
2017-11-01T10:50:12.437Z,210
2017-11-01T10:51:22.501Z,210
2017-11-01T10:52:32.991Z,205
2017-11-01T10:53:43.098Z,190
2017-11-01T10:54:52.859Z,215
2017-11-01T10:56:03.277Z,175
2017-11-01T10:57:13.691Z,160
2017-11-01T10:58:23.790Z,155
2017-11-01T10:59:34.227Z,150
2017-11-01T11:00:44.839Z,150
2017-11-01T11:01:55.275Z,145
2017-11-01T11:03:05.348Z,145
2017-11-01T11:04:15.437Z,145
2017-11-01T11:05:25.535Z,145
2017-11-01T11:06:34.939Z,140
2017-11-01T11:07:45.357Z,140
2017-11-01T11:08:55.771Z,140
2017-11-01T11:10:05.888Z,140
2017-11-01T11:11:15.970Z,135
2017-11-01T11:12:26.373Z,130
2017-11-01T11:13:36.767Z,130
2017-11-01T11:14:46.844Z,125
2017-11-01T11:15:56.584Z,120
2017-11-01T11:17:07.014Z,120
2017-11-01T11:18:17.094Z,120
2017-11-01T11:19:27.527Z,120
2017-11-01T11:20:37.962Z,125
2017-11-01T11:21:48.418Z,130
2017-11-01T11:22:58.843Z,135
2017-11-01T11:24:09.299Z,135
2017-11-01T11:25:19.386Z,140
2017-11-01T11:26:29.141Z,140
2017-11-01T11:27:39.540Z,145
2017-11-01T11:28:49.297Z,145
2017-11-01T11:29:59.696Z,140
2017-11-01T11:31:09.786Z,140
2017-11-01T11:32:20.196Z,140
2017-11-01T11:33:30.666Z,145
2017-11-01T11:34:41.121Z,140
2017-11-01T11:35:51.521Z,140
2017-11-01T11:37:01.269Z,140
2017-11-01T11:38:11.022Z,140
2017-11-01T11:39:21.142Z,135
2017-11-01T11:40:31.556Z,135
2017-11-01T11:41:41.941Z,135
2017-11-01T11:42:52.333Z,135
2017-11-01T11:44:02.431Z,140
2017-11-01T11:45:12.858Z,145
2017-11-01T11:46:23.263Z,145
2017-11-01T11:47:33.679Z,145
2017-11-01T11:48:43.772Z,145
2017-11-01T11:49:53.849Z,145
2017-11-01T11:51:04.334Z,145
2017-11-01T11:52:14.761Z,150
2017-11-01T11:53:25.175Z,150
2017-11-01T11:54:35.267Z,145
2017-11-01T11:55:45.672Z,145
2017-11-01T11:56:56.083Z,145
2017-11-01T11:58:06.490Z,145
2017-11-01T11:59:16.887Z,150
2017-11-01T12:00:27.291Z,150
2017-11-01T12:01:37.367Z,145
2017-11-01T12:02:47.498Z,145
2017-11-01T12:03:57.580Z,135
2017-11-01T12:05:07.695Z,130
2017-11-01T12:06:17.796Z,130
2017-11-01T12:07:28.194Z,130
2017-11-01T12:08:38.614Z,140
2017-11-01T12:09:49.033Z,145
2017-11-01T12:10:59.446Z,145
2017-11-01T12:12:09.550Z,145
2017-11-01T12:13:19.973Z,140
2017-11-01T12:14:30.456Z,130
2017-11-01T12:15:40.861Z,125
2017-11-01T12:16:51.277Z,120
2017-11-01T12:18:01.701Z,125
2017-11-01T12:19:12.130Z,125
2017-11-01T12:20:22.614Z,130
2017-11-01T12:21:33.012Z,130
2017-11-01T12:22:43.079Z,125
2017-11-01T12:23:53.502Z,120
2017-11-01T12:25:03.920Z,120
2017-11-01T12:26:14.371Z,115
2017-11-01T12:27:24.781Z,115
2017-11-01T12:28:35.227Z,110
2017-11-01T12:29:45.644Z,105
2017-11-01T12:30:55.737Z,100
2017-11-01T12:32:05.538Z,90
2017-11-01T12:33:15.949Z,85
2017-11-01T12:34:26.364Z,80
2017-11-01T12:35:36.787Z,75
2017-11-01T12:36:46.868Z,75
2017-11-01T12:37:57.330Z,75
2017-11-01T12:39:07.761Z,80
2017-11-01T12:40:18.174Z,80
2017-11-01T12:41:28.263Z,80
2017-11-01T12:42:38.689Z,80
2017-11-01T12:43:49.162Z,80
2017-11-01T12:44:59.571Z,80
2017-11-01T12:46:09.992Z,80
2017-11-01T12:47:20.400Z,80
2017-11-01T12:48:30.554Z,80
2017-11-01T12:49:41.038Z,80
2017-11-01T12:50:50.815Z,80
2017-11-01T12:52:01.197Z,80
2017-11-01T12:53:11.608Z,80
2017-11-01T12:54:22.060Z,75
2017-11-01T12:55:32.255Z,75
2017-11-01T12:56:42.378Z,75
2017-11-01T12:57:52.797Z,75
2017-11-01T12:59:03.234Z,75
2017-11-01T13:00:13.671Z,75
2017-11-01T13:01:24.090Z,75
2017-11-01T13:02:34.483Z,75
2017-11-01T13:03:44.588Z,75
2017-11-01T13:04:54.993Z,75
2017-11-01T13:06:05.421Z,70
2017-11-01T13:07:15.893Z,70
2017-11-01T13:08:26.320Z,70
2017-11-01T13:09:36.723Z,65
2017-11-01T13:10:47.140Z,60
2017-11-01T13:11:57.588Z,65
2017-11-01T13:13:07.680Z,70
2017-11-01T13:14:18.087Z,75
2017-11-01T13:15:28.502Z,75
2017-11-01T13:16:38.949Z,80
2017-11-01T13:17:49.370Z,80
2017-11-01T13:18:59.858Z,80
2017-11-01T13:20:10.314Z,80
2017-11-01T13:21:20.734Z,80
2017-11-01T13:22:31.159Z,80
2017-11-01T13:23:41.255Z,80
2017-11-01T13:24:51.410Z,80
2017-11-01T13:26:01.817Z,75
2017-11-01T13:27:11.904Z,70
2017-11-01T13:28:22.325Z,70
2017-11-01T13:29:32.760Z,65
2017-11-01T13:30:43.230Z,60
2017-11-01T13:31:53.665Z,60
2017-11-01T13:33:04.088Z,55
2017-11-01T13:34:14.194Z,50
2017-11-01T13:35:24.651Z,50
2017-11-01T13:36:34.787Z,45
2017-11-01T13:37:44.894Z,45
2017-11-01T13:38:55.312Z,40
2017-11-01T13:40:05.714Z,40
2017-11-01T13:41:16.136Z,40
2017-11-01T13:42:26.607Z,40
2017-11-01T13:43:37.010Z,35
2017-11-01T13:44:47.443Z,40
2017-11-01T13:45:57.881Z,40
2017-11-01T13:47:07.980Z,40
2017-11-01T13:48:18.095Z,40
2017-11-01T13:49:28.508Z,40
2017-11-01T13:50:38.903Z,40
2017-11-01T13:51:48.979Z,40
2017-11-01T13:52:59.398Z,40
2017-11-01T13:54:09.201Z,40
2017-11-01T13:55:19.612Z,40
2017-11-01T13:56:30.019Z,40
2017-11-01T13:57:40.446Z,40
2017-11-01T13:58:50.839Z,45
2017-11-01T14:00:01.325Z,45
2017-11-01T14:01:11.737Z,50
2017-11-01T14:02:22.151Z,50
2017-11-01T14:03:32.223Z,50
2017-11-01T14:04:42.310Z,50
2017-11-01T14:05:52.783Z,50
2017-11-01T14:07:02.536Z,55
2017-11-01T14:08:12.938Z,55
2017-11-01T14:09:23.373Z,55
2017-11-01T14:10:33.773Z,50
2017-11-01T14:11:43.847Z,50
2017-11-01T14:12:54.262Z,50
2017-11-01T14:14:04.674Z,45
2017-11-01T14:15:15.077Z,45
2017-11-01T14:16:25.501Z,40
2017-11-01T14:17:35.956Z,40
2017-11-01T14:18:46.384Z,40
2017-11-01T14:19:56.455Z,35
2017-11-01T14:21:06.865Z,35
2017-11-01T14:22:16.953Z,35
2017-11-01T14:23:27.434Z,35
2017-11-01T14:24:37.534Z,35
2017-11-01T14:25:47.972Z,35
2017-11-01T14:26:58.386Z,35
2017-11-01T14:28:08.782Z,35
2017-11-01T14:29:19.256Z,35
2017-11-01T14:30:29.722Z,35
2017-11-01T14:31:40.140Z,35
2017-11-01T14:32:50.565Z,35
2017-11-01T14:34:01.001Z,35
2017-11-01T14:35:11.488Z,35
2017-11-01T14:36:21.913Z,35
2017-11-01T14:37:31.993Z,35
2017-11-01T14:38:42.133Z,35
2017-11-01T14:39:52.547Z,35
2017-11-01T14:41:02.696Z,30
2017-11-01T14:42:12.800Z,30
2017-11-01T14:43:23.242Z,25
2017-11-01T14:44:33.681Z,25
2017-11-01T14:45:43.766Z,25
2017-11-01T14:46:53.863Z,20
2017-11-01T14:48:03.628Z,20
2017-11-01T14:49:14.068Z,20
2017-11-01T14:50:24.522Z,20
2017-11-01T14:51:34.978Z,20
2017-11-01T14:52:45.495Z,20
2017-11-01T14:53:55.592Z,20
2017-11-01T14:55:06.026Z,20
2017-11-01T14:56:16.453Z,20
2017-11-01T14:57:26.885Z,15
2017-11-01T14:58:37.379Z,15
2017-11-01T14:59:47.787Z,15
2017-11-01T15:00:58.202Z,15
2017-11-01T15:02:08.611Z,15
2017-11-01T15:03:19.018Z,15
2017-11-01T15:04:28.774Z,15
2017-11-01T15:05:39.205Z,10
2017-11-01T15:06:49.603Z,10
2017-11-01T15:08:00.026Z,10
2017-11-01T15:09:10.483Z,10
2017-11-01T15:10:20.567Z,10
2017-11-01T15:11:30.992Z,10
2017-11-01T15:12:41.390Z,5
2017-11-01T15:13:51.480Z,5
2017-11-01T15:15:01.915Z,5
2017-11-01T15:16:12.413Z,5
2017-11-01T15:17:22.485Z,5
2017-11-01T15:18:32.223Z,5
2017-11-01T15:19:42.318Z,5
2017-11-01T15:20:52.413Z,5
2017-11-01T15:22:02.869Z,0
2017-11-01T15:23:13.292Z,0
2017-11-01T15:24:23.702Z,0
2017-11-01T15:25:33.776Z,0
2017-11-01T15:26:43.887Z,0
2017-11-01T15:27:54.303Z,0
2017-11-01T15:29:04.053Z,0
2017-11-01T15:30:14.478Z,0
2017-11-01T15:31:24.912Z,0
2017-11-01T15:32:35.323Z,0
2017-11-01T15:33:45.463Z,0
2017-11-01T15:34:55.885Z,0
2017-11-01T15:36:06.309Z,0
2017-11-01T15:37:16.741Z,0
2017-11-01T15:38:26.506Z,0
2017-11-01T15:39:36.967Z,0
2017-11-01T15:40:47.381Z,0
2017-11-01T15:41:57.489Z,0
2017-11-01T15:43:07.894Z,0
2017-11-01T15:44:17.984Z,0
2017-11-01T15:45:28.454Z,0
2017-11-01T15:46:38.873Z,0
2017-11-01T15:47:49.274Z,0
2017-11-01T15:48:59.359Z,0
2017-11-01T15:50:09.799Z,0
2017-11-01T15:51:20.197Z,0
2017-11-01T15:52:30.638Z,0
2017-11-01T15:53:40.729Z,0
2017-11-01T15:54:51.108Z,0
2017-11-01T15:56:01.524Z,0
2017-11-01T15:57:11.955Z,0
2017-11-01T15:58:22.308Z,0
2017-11-01T15:59:32.421Z,0
2017-11-01T16:00:42.496Z,0
2017-11-01T16:01:52.889Z,0
2017-11-01T16:03:03.353Z,0
2017-11-01T16:04:13.784Z,0
2017-11-01T16:05:24.224Z,0
2017-11-01T16:06:34.302Z,0
2017-11-01T16:07:44.721Z,0
2017-11-01T16:08:55.131Z,0
2017-11-01T16:10:05.551Z,0
2017-11-01T16:11:15.957Z,0
2017-11-01T16:12:26.028Z,0
2017-11-01T16:13:36.448Z,0
2017-11-01T16:14:46.884Z,0
2017-11-01T16:15:57.332Z,0
2017-11-01T16:17:07.416Z,0
2017-11-01T16:18:17.832Z,0
2017-11-01T16:19:28.280Z,0
2017-11-01T16:20:38.686Z,0
2017-11-01T16:21:49.089Z,0
2017-11-01T16:22:59.507Z,0
2017-11-01T16:24:09.925Z,0
2017-11-01T16:25:20.355Z,0
2017-11-01T16:26:30.800Z,0
2017-11-01T16:27:41.225Z,0
2017-11-01T16:28:51.653Z,0
2017-11-01T16:30:02.068Z,0
2017-11-01T16:31:12.482Z,0
2017-11-01T16:32:22.903Z,0
2017-11-01T16:33:33.300Z,0
2017-11-01T16:34:43.705Z,0
2017-11-01T16:35:54.135Z,0
2017-11-01T16:37:04.573Z,0
2017-11-01T16:38:15.015Z,0
2017-11-01T16:39:25.405Z,0
2017-11-01T16:40:35.460Z,0
2017-11-01T16:41:45.598Z,0
2017-11-01T16:42:56.010Z,0
2017-11-01T16:44:06.079Z,0
2017-11-01T16:45:16.188Z,0
2017-11-01T16:46:26.284Z,0
2017-11-01T16:47:36.680Z,0
2017-11-01T16:48:47.082Z,0
2017-11-01T16:49:57.545Z,0
2017-11-01T16:51:07.970Z,0
2017-11-01T16:52:18.053Z,0
2017-11-01T16:53:28.477Z,0
2017-11-01T16:54:38.911Z,0
2017-11-01T16:55:49.418Z,0
2017-11-01T16:56:59.873Z,0
2017-11-01T16:58:09.271Z,0
2017-11-01T16:59:19.345Z,0
2017-11-01T17:00:30.438Z,0
2017-11-01T17:01:40.891Z,0
2017-11-01T17:02:51.309Z,0
2017-11-01T17:04:01.729Z,0
2017-11-01T17:05:11.804Z,0
2017-11-01T17:06:21.903Z,0
2017-11-01T17:07:32.333Z,0
2017-11-01T17:08:42.773Z,0
2017-11-01T17:09:52.870Z,0
2017-11-01T17:11:03.286Z,0
2017-11-01T17:12:13.388Z,0
2017-11-01T17:13:23.802Z,0
2017-11-01T17:14:34.199Z,0
2017-11-01T17:15:44.646Z,0
2017-11-01T17:16:54.730Z,0
2017-11-01T17:18:04.827Z,0
2017-11-01T17:19:14.958Z,0
2017-11-01T17:20:25.349Z,0